sensor_id;sensor_type;location;lat;lon;timestamp;P1;durP1;ratioP1;P2;durP2;ratioP2
71566;SDS011;59403;47.456;19.120;2023-09-12T00:00:12;16.45;;;9.82;;
71566;SDS011;59403;47.456;19.120;2023-09-12T00:02:39;16.12;;;9.40;;
71566;SDS011;59403;47.456;19.120;2023-09-12T00:05:08;16.20;;;9.70;;
71566;SDS011;59403;47.456;19.120;2023-09-12T00:07:35;15.82;;;9.45;;
71566;SDS011;59403;47.456;19.120;2023-09-12T00:10:02;18.35;;;9.60;;
71566;SDS011;59403;47.456;19.120;2023-09-12T00:12:29;14.32;;;10.02;;
71566;SDS011;59403;47.456;19.120;2023-09-12T00:14:56;15.43;;;9.10;;
71566;SDS011;59403;47.456;19.120;2023-09-12T00:17:22;16.97;;;9.43;;
71566;SDS011;59403;47.456;19.120;2023-09-12T00:19:52;15.80;;;9.02;;
71566;SDS011;59403;47.456;19.120;2023-09-12T00:22:20;14.98;;;9.68;;
71566;SDS011;59403;47.456;19.120;2023-09-12T00:24:47;18.10;;;10.40;;
71566;SDS011;59403;47.456;19.120;2023-09-12T00:27:14;17.42;;;9.70;;
71566;SDS011;59403;47.456;19.120;2023-09-12T00:29:41;15.73;;;10.35;;
71566;SDS011;59403;47.456;19.120;2023-09-12T00:32:08;14.43;;;9.88;;
71566;SDS011;59403;47.456;19.120;2023-09-12T00:34:34;18.60;;;9.25;;
71566;SDS011;59403;47.456;19.120;2023-09-12T00:37:01;16.20;;;10.27;;
71566;SDS011;59403;47.456;19.120;2023-09-12T00:39:30;14.43;;;9.82;;
71566;SDS011;59403;47.456;19.120;2023-09-12T00:41:57;12.80;;;9.20;;
71566;SDS011;59403;47.456;19.120;2023-09-12T00:44:24;17.73;;;8.73;;
71566;SDS011;59403;47.456;19.120;2023-09-12T00:46:51;16.48;;;10.20;;
71566;SDS011;59403;47.456;19.120;2023-09-12T00:49:20;14.50;;;9.75;;
71566;SDS011;59403;47.456;19.120;2023-09-12T00:51:48;15.07;;;9.40;;
71566;SDS011;59403;47.456;19.120;2023-09-12T00:54:16;14.60;;;9.40;;
71566;SDS011;59403;47.456;19.120;2023-09-12T00:56:45;16.05;;;9.50;;
71566;SDS011;59403;47.456;19.120;2023-09-12T00:59:12;19.87;;;10.00;;
71566;SDS011;59403;47.456;19.120;2023-09-12T01:04:17;13.38;;;9.57;;
71566;SDS011;59403;47.456;19.120;2023-09-12T01:06:46;13.07;;;9.53;;
71566;SDS011;59403;47.456;19.120;2023-09-12T01:09:13;16.10;;;10.02;;
71566;SDS011;59403;47.456;19.120;2023-09-12T01:11:40;15.32;;;9.65;;
71566;SDS011;59403;47.456;19.120;2023-09-12T01:14:09;16.02;;;9.43;;
71566;SDS011;59403;47.456;19.120;2023-09-12T01:16:36;16.23;;;9.80;;
71566;SDS011;59403;47.456;19.120;2023-09-12T01:19:03;12.07;;;9.57;;
71566;SDS011;59403;47.456;19.120;2023-09-12T01:21:37;16.05;;;9.63;;
71566;SDS011;59403;47.456;19.120;2023-09-12T01:24:32;14.48;;;9.82;;
71566;SDS011;59403;47.456;19.120;2023-09-12T01:27:36;16.27;;;10.02;;
71566;SDS011;59403;47.456;19.120;2023-09-12T01:30:05;18.42;;;9.57;;
71566;SDS011;59403;47.456;19.120;2023-09-12T01:32:35;13.30;;;9.33;;
71566;SDS011;59403;47.456;19.120;2023-09-12T01:35:02;11.43;;;8.52;;
71566;SDS011;59403;47.456;19.120;2023-09-12T01:37:29;14.65;;;9.70;;
71566;SDS011;59403;47.456;19.120;2023-09-12T01:39:56;15.00;;;8.93;;
71566;SDS011;59403;47.456;19.120;2023-09-12T01:42:24;14.15;;;9.20;;
71566;SDS011;59403;47.456;19.120;2023-09-12T01:44:55;14.40;;;9.57;;
71566;SDS011;59403;47.456;19.120;2023-09-12T01:47:23;14.50;;;9.90;;
71566;SDS011;59403;47.456;19.120;2023-09-12T01:49:52;16.40;;;8.88;;
71566;SDS011;59403;47.456;19.120;2023-09-12T01:52:22;15.40;;;9.38;;
71566;SDS011;59403;47.456;19.120;2023-09-12T01:54:50;14.48;;;9.68;;
71566;SDS011;59403;47.456;19.120;2023-09-12T01:57:19;15.73;;;9.20;;
71566;SDS011;59403;47.456;19.120;2023-09-12T01:59:46;10.93;;;9.13;;
71566;SDS011;59403;47.456;19.120;2023-09-12T02:02:15;14.05;;;9.07;;
71566;SDS011;59403;47.456;19.120;2023-09-12T02:04:43;15.57;;;9.57;;
71566;SDS011;59403;47.456;19.120;2023-09-12T02:07:17;13.27;;;9.45;;
71566;SDS011;59403;47.456;19.120;2023-09-12T02:09:44;15.00;;;9.80;;
71566;SDS011;59403;47.456;19.120;2023-09-12T02:12:11;14.32;;;9.32;;
71566;SDS011;59403;47.456;19.120;2023-09-12T02:14:38;16.40;;;9.68;;
71566;SDS011;59403;47.456;19.120;2023-09-12T02:17:05;13.25;;;9.38;;
71566;SDS011;59403;47.456;19.120;2023-09-12T02:19:33;13.30;;;9.20;;
71566;SDS011;59403;47.456;19.120;2023-09-12T02:22:00;13.13;;;9.23;;
71566;SDS011;59403;47.456;19.120;2023-09-12T02:24:27;16.48;;;9.73;;
71566;SDS011;59403;47.456;19.120;2023-09-12T02:26:54;15.63;;;9.75;;
71566;SDS011;59403;47.456;19.120;2023-09-12T02:29:21;15.18;;;9.85;;
71566;SDS011;59403;47.456;19.120;2023-09-12T02:31:48;15.88;;;9.25;;
71566;SDS011;59403;47.456;19.120;2023-09-12T02:34:14;14.23;;;10.53;;
71566;SDS011;59403;47.456;19.120;2023-09-12T02:36:43;18.50;;;10.32;;
71566;SDS011;59403;47.456;19.120;2023-09-12T02:39:09;13.80;;;9.40;;
71566;SDS011;59403;47.456;19.120;2023-09-12T02:41:36;13.62;;;9.02;;
71566;SDS011;59403;47.456;19.120;2023-09-12T02:44:03;13.10;;;9.15;;
71566;SDS011;59403;47.456;19.120;2023-09-12T02:46:31;12.40;;;9.35;;
71566;SDS011;59403;47.456;19.120;2023-09-12T02:48:57;14.10;;;9.65;;
71566;SDS011;59403;47.456;19.120;2023-09-12T02:51:24;15.00;;;9.73;;
71566;SDS011;59403;47.456;19.120;2023-09-12T02:53:53;13.02;;;9.10;;
71566;SDS011;59403;47.456;19.120;2023-09-12T02:56:20;14.55;;;9.95;;
71566;SDS011;59403;47.456;19.120;2023-09-12T02:58:47;14.38;;;10.25;;
71566;SDS011;59403;47.456;19.120;2023-09-12T03:01:14;13.30;;;9.75;;
71566;SDS011;59403;47.456;19.120;2023-09-12T03:03:42;12.37;;;9.07;;
71566;SDS011;59403;47.456;19.120;2023-09-12T03:06:11;16.33;;;10.50;;
71566;SDS011;59403;47.456;19.120;2023-09-12T03:08:39;15.57;;;10.98;;
71566;SDS011;59403;47.456;19.120;2023-09-12T03:11:07;14.00;;;10.03;;
71566;SDS011;59403;47.456;19.120;2023-09-12T03:13:34;12.70;;;10.05;;
71566;SDS011;59403;47.456;19.120;2023-09-12T03:16:02;14.15;;;10.60;;
71566;SDS011;59403;47.456;19.120;2023-09-12T03:18:30;15.15;;;9.70;;
71566;SDS011;59403;47.456;19.120;2023-09-12T03:20:57;15.23;;;9.82;;
71566;SDS011;59403;47.456;19.120;2023-09-12T03:23:23;15.82;;;10.90;;
71566;SDS011;59403;47.456;19.120;2023-09-12T03:25:50;15.60;;;10.43;;
71566;SDS011;59403;47.456;19.120;2023-09-12T03:28:19;15.82;;;10.38;;
71566;SDS011;59403;47.456;19.120;2023-09-12T03:30:46;13.32;;;9.75;;
71566;SDS011;59403;47.456;19.120;2023-09-12T03:33:13;18.75;;;10.32;;
71566;SDS011;59403;47.456;19.120;2023-09-12T03:35:42;19.70;;;10.38;;
71566;SDS011;59403;47.456;19.120;2023-09-12T03:38:09;17.62;;;10.82;;
71566;SDS011;59403;47.456;19.120;2023-09-12T03:40:37;15.23;;;10.60;;
71566;SDS011;59403;47.456;19.120;2023-09-12T03:43:04;14.15;;;10.10;;
71566;SDS011;59403;47.456;19.120;2023-09-12T03:45:32;13.85;;;10.32;;
71566;SDS011;59403;47.456;19.120;2023-09-12T03:47:59;16.00;;;10.90;;
71566;SDS011;59403;47.456;19.120;2023-09-12T03:50:25;17.75;;;10.82;;
71566;SDS011;59403;47.456;19.120;2023-09-12T03:52:52;17.15;;;10.23;;
71566;SDS011;59403;47.456;19.120;2023-09-12T03:55:19;15.65;;;9.95;;
71566;SDS011;59403;47.456;19.120;2023-09-12T03:57:46;20.37;;;11.05;;
71566;SDS011;59403;47.456;19.120;2023-09-12T04:00:13;14.32;;;10.57;;
71566;SDS011;59403;47.456;19.120;2023-09-12T04:02:42;18.65;;;10.65;;
71566;SDS011;59403;47.456;19.120;2023-09-12T04:05:09;18.00;;;10.77;;
71566;SDS011;59403;47.456;19.120;2023-09-12T04:07:36;16.90;;;10.20;;
71566;SDS011;59403;47.456;19.120;2023-09-12T04:10:03;15.70;;;10.23;;
71566;SDS011;59403;47.456;19.120;2023-09-12T04:12:31;14.93;;;10.35;;
71566;SDS011;59403;47.456;19.120;2023-09-12T04:14:58;18.60;;;11.00;;
71566;SDS011;59403;47.456;19.120;2023-09-12T04:17:25;17.00;;;10.35;;
71566;SDS011;59403;47.456;19.120;2023-09-12T04:19:53;15.23;;;10.25;;
71566;SDS011;59403;47.456;19.120;2023-09-12T04:22:20;20.85;;;11.50;;
71566;SDS011;59403;47.456;19.120;2023-09-12T04:24:47;16.33;;;10.82;;
71566;SDS011;59403;47.456;19.120;2023-09-12T04:27:14;16.87;;;11.30;;
71566;SDS011;59403;47.456;19.120;2023-09-12T04:29:40;16.65;;;10.85;;
71566;SDS011;59403;47.456;19.120;2023-09-12T04:32:07;18.60;;;10.57;;
71566;SDS011;59403;47.456;19.120;2023-09-12T04:34:34;15.00;;;10.63;;
71566;SDS011;59403;47.456;19.120;2023-09-12T04:37:03;17.02;;;10.73;;
71566;SDS011;59403;47.456;19.120;2023-09-12T04:39:30;23.12;;;10.95;;
71566;SDS011;59403;47.456;19.120;2023-09-12T04:41:57;15.82;;;11.43;;
71566;SDS011;59403;47.456;19.120;2023-09-12T04:44:24;19.37;;;10.60;;
71566;SDS011;59403;47.456;19.120;2023-09-12T04:46:51;18.37;;;11.38;;
71566;SDS011;59403;47.456;19.120;2023-09-12T04:49:18;18.37;;;12.02;;
71566;SDS011;59403;47.456;19.120;2023-09-12T04:51:45;19.98;;;11.57;;
71566;SDS011;59403;47.456;19.120;2023-09-12T04:54:13;21.67;;;11.30;;
71566;SDS011;59403;47.456;19.120;2023-09-12T04:56:40;18.48;;;11.15;;
71566;SDS011;59403;47.456;19.120;2023-09-12T04:59:07;18.67;;;11.15;;
71566;SDS011;59403;47.456;19.120;2023-09-12T05:01:34;17.40;;;11.95;;
71566;SDS011;59403;47.456;19.120;2023-09-12T05:04:01;16.73;;;11.60;;
71566;SDS011;59403;47.456;19.120;2023-09-12T05:06:28;18.48;;;11.30;;
71566;SDS011;59403;47.456;19.120;2023-09-12T05:08:55;19.00;;;12.10;;
71566;SDS011;59403;47.456;19.120;2023-09-12T05:11:24;22.13;;;12.32;;
71566;SDS011;59403;47.456;19.120;2023-09-12T05:13:51;18.98;;;11.20;;
71566;SDS011;59403;47.456;19.120;2023-09-12T05:16:18;17.42;;;11.95;;
71566;SDS011;59403;47.456;19.120;2023-09-12T05:18:45;15.05;;;11.70;;
71566;SDS011;59403;47.456;19.120;2023-09-12T05:21:14;18.33;;;11.90;;
71566;SDS011;59403;47.456;19.120;2023-09-12T05:23:41;17.25;;;12.27;;
71566;SDS011;59403;47.456;19.120;2023-09-12T05:26:08;16.75;;;11.98;;
71566;SDS011;59403;47.456;19.120;2023-09-12T05:28:37;18.15;;;12.00;;
71566;SDS011;59403;47.456;19.120;2023-09-12T05:31:03;29.63;;;12.27;;
71566;SDS011;59403;47.456;19.120;2023-09-12T05:33:30;19.33;;;12.77;;
71566;SDS011;59403;47.456;19.120;2023-09-12T05:35:57;22.05;;;12.20;;
71566;SDS011;59403;47.456;19.120;2023-09-12T05:38:24;24.77;;;12.48;;
71566;SDS011;59403;47.456;19.120;2023-09-12T05:40:51;25.40;;;12.82;;
71566;SDS011;59403;47.456;19.120;2023-09-12T05:43:18;20.35;;;11.77;;
71566;SDS011;59403;47.456;19.120;2023-09-12T05:45:46;17.75;;;11.50;;
71566;SDS011;59403;47.456;19.120;2023-09-12T05:48:13;20.80;;;12.77;;
71566;SDS011;59403;47.456;19.120;2023-09-12T05:50:40;15.97;;;12.00;;
71566;SDS011;59403;47.456;19.120;2023-09-12T05:53:07;18.42;;;11.73;;
71566;SDS011;59403;47.456;19.120;2023-09-12T05:55:34;18.73;;;12.23;;
71566;SDS011;59403;47.456;19.120;2023-09-12T05:58:01;19.65;;;13.23;;
71566;SDS011;59403;47.456;19.120;2023-09-12T06:00:30;20.27;;;12.30;;
71566;SDS011;59403;47.456;19.120;2023-09-12T06:02:59;21.17;;;11.97;;
71566;SDS011;59403;47.456;19.120;2023-09-12T06:05:25;16.73;;;11.27;;
71566;SDS011;59403;47.456;19.120;2023-09-12T06:07:52;15.50;;;12.25;;
71566;SDS011;59403;47.456;19.120;2023-09-12T06:10:19;17.80;;;12.30;;
71566;SDS011;59403;47.456;19.120;2023-09-12T06:12:46;20.25;;;12.70;;
71566;SDS011;59403;47.456;19.120;2023-09-12T06:15:14;22.70;;;12.27;;
71566;SDS011;59403;47.456;19.120;2023-09-12T06:17:41;18.55;;;12.60;;
71566;SDS011;59403;47.456;19.120;2023-09-12T06:20:10;17.45;;;11.63;;
71566;SDS011;59403;47.456;19.120;2023-09-12T06:22:37;15.88;;;11.32;;
71566;SDS011;59403;47.456;19.120;2023-09-12T06:25:05;22.70;;;11.40;;
71566;SDS011;59403;47.456;19.120;2023-09-12T06:27:32;18.83;;;10.83;;
71566;SDS011;59403;47.456;19.120;2023-09-12T06:29:59;19.27;;;11.52;;
71566;SDS011;59403;47.456;19.120;2023-09-12T06:32:26;17.95;;;11.40;;
71566;SDS011;59403;47.456;19.120;2023-09-12T06:34:53;17.70;;;11.05;;
71566;SDS011;59403;47.456;19.120;2023-09-12T06:37:21;20.73;;;11.90;;
71566;SDS011;59403;47.456;19.120;2023-09-12T06:39:49;19.73;;;11.43;;
71566;SDS011;59403;47.456;19.120;2023-09-12T06:42:16;18.33;;;11.70;;
71566;SDS011;59403;47.456;19.120;2023-09-12T06:44:44;23.33;;;11.80;;
71566;SDS011;59403;47.456;19.120;2023-09-12T06:47:11;19.35;;;11.43;;
71566;SDS011;59403;47.456;19.120;2023-09-12T06:49:38;19.10;;;11.65;;
71566;SDS011;59403;47.456;19.120;2023-09-12T06:52:05;22.10;;;11.97;;
71566;SDS011;59403;47.456;19.120;2023-09-12T06:54:36;20.20;;;12.00;;
71566;SDS011;59403;47.456;19.120;2023-09-12T06:57:03;18.48;;;11.57;;
71566;SDS011;59403;47.456;19.120;2023-09-12T06:59:30;18.67;;;11.20;;
71566;SDS011;59403;47.456;19.120;2023-09-12T07:01:57;20.20;;;11.73;;
71566;SDS011;59403;47.456;19.120;2023-09-12T07:04:24;17.37;;;11.80;;
71566;SDS011;59403;47.456;19.120;2023-09-12T07:06:50;20.58;;;11.90;;
71566;SDS011;59403;47.456;19.120;2023-09-12T07:09:17;18.83;;;12.10;;
71566;SDS011;59403;47.456;19.120;2023-09-12T07:11:47;24.60;;;12.37;;
71566;SDS011;59403;47.456;19.120;2023-09-12T07:14:14;18.98;;;11.88;;
71566;SDS011;59403;47.456;19.120;2023-09-12T07:16:41;20.53;;;12.43;;
71566;SDS011;59403;47.456;19.120;2023-09-12T07:19:08;16.85;;;11.15;;
71566;SDS011;59403;47.456;19.120;2023-09-12T07:21:35;20.92;;;11.52;;
71566;SDS011;59403;47.456;19.120;2023-09-12T07:24:02;23.15;;;11.80;;
71566;SDS011;59403;47.456;19.120;2023-09-12T07:26:29;21.60;;;11.93;;
71566;SDS011;59403;47.456;19.120;2023-09-12T07:28:57;26.53;;;12.23;;
71566;SDS011;59403;47.456;19.120;2023-09-12T07:31:27;22.35;;;11.23;;
71566;SDS011;59403;47.456;19.120;2023-09-12T07:33:54;23.20;;;10.70;;
71566;SDS011;59403;47.456;19.120;2023-09-12T07:36:21;20.88;;;10.00;;
71566;SDS011;59403;47.456;19.120;2023-09-12T07:38:48;18.98;;;9.88;;
71566;SDS011;59403;47.456;19.120;2023-09-12T07:41:15;18.50;;;10.23;;
71566;SDS011;59403;47.456;19.120;2023-09-12T07:43:42;20.83;;;10.25;;
71566;SDS011;59403;47.456;19.120;2023-09-12T07:46:10;21.27;;;9.80;;
71566;SDS011;59403;47.456;19.120;2023-09-12T07:48:37;21.30;;;8.80;;
71566;SDS011;59403;47.456;19.120;2023-09-12T07:51:11;18.25;;;9.38;;
71566;SDS011;59403;47.456;19.120;2023-09-12T07:53:39;16.07;;;8.63;;
71566;SDS011;59403;47.456;19.120;2023-09-12T07:56:07;17.52;;;9.32;;
71566;SDS011;59403;47.456;19.120;2023-09-12T07:58:36;15.38;;;8.48;;
71566;SDS011;59403;47.456;19.120;2023-09-12T08:01:06;17.33;;;9.00;;
71566;SDS011;59403;47.456;19.120;2023-09-12T08:03:35;14.30;;;8.40;;
71566;SDS011;59403;47.456;19.120;2023-09-12T08:06:03;16.33;;;8.40;;
71566;SDS011;59403;47.456;19.120;2023-09-12T08:08:30;13.18;;;8.98;;
71566;SDS011;59403;47.456;19.120;2023-09-12T08:10:58;15.98;;;8.95;;
71566;SDS011;59403;47.456;19.120;2023-09-12T08:13:25;14.98;;;8.90;;
71566;SDS011;59403;47.456;19.120;2023-09-12T08:15:53;17.73;;;9.27;;
71566;SDS011;59403;47.456;19.120;2023-09-12T08:18:20;17.00;;;9.73;;
71566;SDS011;59403;47.456;19.120;2023-09-12T08:20:49;17.23;;;9.60;;
71566;SDS011;59403;47.456;19.120;2023-09-12T08:23:16;17.42;;;8.90;;
71566;SDS011;59403;47.456;19.120;2023-09-12T08:25:43;16.80;;;8.95;;
71566;SDS011;59403;47.456;19.120;2023-09-12T08:28:09;16.95;;;9.00;;
71566;SDS011;59403;47.456;19.120;2023-09-12T08:30:36;17.30;;;9.00;;
71566;SDS011;59403;47.456;19.120;2023-09-12T08:33:03;14.80;;;8.80;;
71566;SDS011;59403;47.456;19.120;2023-09-12T08:35:32;19.00;;;8.70;;
71566;SDS011;59403;47.456;19.120;2023-09-12T08:38:00;14.02;;;8.45;;
71566;SDS011;59403;47.456;19.120;2023-09-12T08:40:27;17.62;;;8.57;;
71566;SDS011;59403;47.456;19.120;2023-09-12T08:42:55;19.23;;;8.17;;
71566;SDS011;59403;47.456;19.120;2023-09-12T08:45:24;17.45;;;8.38;;
71566;SDS011;59403;47.456;19.120;2023-09-12T08:47:51;14.77;;;8.40;;
71566;SDS011;59403;47.456;19.120;2023-09-12T08:50:20;15.63;;;7.97;;
71566;SDS011;59403;47.456;19.120;2023-09-12T08:52:48;17.85;;;7.87;;
71566;SDS011;59403;47.456;19.120;2023-09-12T08:55:17;12.33;;;8.30;;
71566;SDS011;59403;47.456;19.120;2023-09-12T08:57:45;13.82;;;8.05;;
71566;SDS011;59403;47.456;19.120;2023-09-12T09:00:14;14.43;;;7.37;;
71566;SDS011;59403;47.456;19.120;2023-09-12T09:02:42;14.07;;;7.15;;
71566;SDS011;59403;47.456;19.120;2023-09-12T09:05:10;17.55;;;7.62;;
71566;SDS011;59403;47.456;19.120;2023-09-12T09:07:38;12.43;;;7.67;;
71566;SDS011;59403;47.456;19.120;2023-09-12T09:10:07;14.82;;;7.80;;
71566;SDS011;59403;47.456;19.120;2023-09-12T09:12:39;11.73;;;7.28;;
71566;SDS011;59403;47.456;19.120;2023-09-12T09:15:25;14.00;;;7.85;;
71566;SDS011;59403;47.456;19.120;2023-09-12T09:17:53;16.10;;;7.95;;
71566;SDS011;59403;47.456;19.120;2023-09-12T09:20:22;18.27;;;7.33;;
71566;SDS011;59403;47.456;19.120;2023-09-12T09:22:59;14.05;;;7.05;;
71566;SDS011;59403;47.456;19.120;2023-09-12T09:25:30;12.77;;;7.15;;
71566;SDS011;59403;47.456;19.120;2023-09-12T09:27:58;13.48;;;7.53;;
71566;SDS011;59403;47.456;19.120;2023-09-12T09:30:41;11.95;;;7.03;;
71566;SDS011;59403;47.456;19.120;2023-09-12T09:33:09;13.60;;;6.53;;
71566;SDS011;59403;47.456;19.120;2023-09-12T09:35:37;16.87;;;7.50;;
71566;SDS011;59403;47.456;19.120;2023-09-12T09:38:07;10.85;;;6.70;;
71566;SDS011;59403;47.456;19.120;2023-09-12T09:40:35;13.57;;;6.28;;
71566;SDS011;59403;47.456;19.120;2023-09-12T09:43:04;11.60;;;6.72;;
71566;SDS011;59403;47.456;19.120;2023-09-12T09:45:31;13.60;;;6.77;;
71566;SDS011;59403;47.456;19.120;2023-09-12T09:47:58;14.52;;;6.70;;
71566;SDS011;59403;47.456;19.120;2023-09-12T09:50:33;10.52;;;7.22;;
71566;SDS011;59403;47.456;19.120;2023-09-12T09:53:00;13.98;;;6.78;;
71566;SDS011;59403;47.456;19.120;2023-09-12T09:55:29;9.57;;;6.82;;
71566;SDS011;59403;47.456;19.120;2023-09-12T09:57:57;11.43;;;6.13;;
71566;SDS011;59403;47.456;19.120;2023-09-12T10:00:25;10.48;;;6.53;;
71566;SDS011;59403;47.456;19.120;2023-09-12T10:02:55;11.57;;;6.75;;
71566;SDS011;59403;47.456;19.120;2023-09-12T10:05:23;12.15;;;6.40;;
71566;SDS011;59403;47.456;19.120;2023-09-12T10:07:51;8.30;;;6.07;;
71566;SDS011;59403;47.456;19.120;2023-09-12T10:10:20;12.40;;;6.80;;
71566;SDS011;59403;47.456;19.120;2023-09-12T10:12:51;11.48;;;6.45;;
71566;SDS011;59403;47.456;19.120;2023-09-12T10:15:22;9.57;;;6.90;;
71566;SDS011;59403;47.456;19.120;2023-09-12T10:17:56;15.32;;;7.40;;
71566;SDS011;59403;47.456;19.120;2023-09-12T10:20:25;11.73;;;6.25;;
71566;SDS011;59403;47.456;19.120;2023-09-12T10:23:05;11.10;;;6.40;;
71566;SDS011;59403;47.456;19.120;2023-09-12T10:25:36;11.90;;;7.22;;
71566;SDS011;59403;47.456;19.120;2023-09-12T10:28:04;12.13;;;5.95;;
71566;SDS011;59403;47.456;19.120;2023-09-12T10:30:33;13.35;;;7.07;;
71566;SDS011;59403;47.456;19.120;2023-09-12T10:33:02;11.38;;;7.07;;
71566;SDS011;59403;47.456;19.120;2023-09-12T10:35:30;12.47;;;5.90;;
71566;SDS011;59403;47.456;19.120;2023-09-12T10:37:59;12.20;;;6.00;;
71566;SDS011;59403;47.456;19.120;2023-09-12T10:40:27;10.60;;;6.20;;
71566;SDS011;59403;47.456;19.120;2023-09-12T10:42:55;9.65;;;6.53;;
71566;SDS011;59403;47.456;19.120;2023-09-12T10:45:23;8.32;;;6.07;;
71566;SDS011;59403;47.456;19.120;2023-09-12T10:47:53;10.97;;;5.83;;
71566;SDS011;59403;47.456;19.120;2023-09-12T10:50:20;11.00;;;5.90;;
71566;SDS011;59403;47.456;19.120;2023-09-12T10:52:47;9.70;;;6.15;;
71566;SDS011;59403;47.456;19.120;2023-09-12T10:55:15;12.23;;;6.25;;
71566;SDS011;59403;47.456;19.120;2023-09-12T11:00:29;10.33;;;5.80;;
71566;SDS011;59403;47.456;19.120;2023-09-12T11:02:59;10.02;;;6.15;;
71566;SDS011;59403;47.456;19.120;2023-09-12T11:05:50;8.13;;;6.00;;
71566;SDS011;59403;47.456;19.120;2023-09-12T11:08:19;10.75;;;5.60;;
71566;SDS011;59403;47.456;19.120;2023-09-12T11:10:48;9.95;;;5.65;;
71566;SDS011;59403;47.456;19.120;2023-09-12T11:13:45;8.67;;;5.90;;
71566;SDS011;59403;47.456;19.120;2023-09-12T11:16:12;14.70;;;5.90;;
71566;SDS011;59403;47.456;19.120;2023-09-12T11:21:44;12.65;;;5.87;;
71566;SDS011;59403;47.456;19.120;2023-09-12T11:24:12;14.73;;;6.20;;
71566;SDS011;59403;47.456;19.120;2023-09-12T11:26:57;11.47;;;6.07;;
71566;SDS011;59403;47.456;19.120;2023-09-12T11:29:29;10.50;;;6.03;;
71566;SDS011;59403;47.456;19.120;2023-09-12T11:31:57;9.32;;;5.43;;
71566;SDS011;59403;47.456;19.120;2023-09-12T11:34:26;13.25;;;8.05;;
71566;SDS011;59403;47.456;19.120;2023-09-12T11:36:54;9.82;;;6.22;;
71566;SDS011;59403;47.456;19.120;2023-09-12T11:39:23;10.23;;;5.70;;
71566;SDS011;59403;47.456;19.120;2023-09-12T11:41:52;9.20;;;6.28;;
71566;SDS011;59403;47.456;19.120;2023-09-12T11:44:21;9.48;;;5.57;;
71566;SDS011;59403;47.456;19.120;2023-09-12T11:46:49;10.48;;;5.45;;
71566;SDS011;59403;47.456;19.120;2023-09-12T11:49:17;9.65;;;5.60;;
71566;SDS011;59403;47.456;19.120;2023-09-12T11:51:49;8.97;;;5.97;;
71566;SDS011;59403;47.456;19.120;2023-09-12T11:54:18;9.88;;;5.85;;
71566;SDS011;59403;47.456;19.120;2023-09-12T11:56:46;11.98;;;6.25;;
71566;SDS011;59403;47.456;19.120;2023-09-12T11:59:15;17.77;;;6.10;;
71566;SDS011;59403;47.456;19.120;2023-09-12T12:01:44;7.95;;;5.60;;
71566;SDS011;59403;47.456;19.120;2023-09-12T12:04:11;12.90;;;5.93;;
71566;SDS011;59403;47.456;19.120;2023-09-12T12:06:38;8.70;;;5.55;;
71566;SDS011;59403;47.456;19.120;2023-09-12T12:09:08;13.48;;;5.72;;
71566;SDS011;59403;47.456;19.120;2023-09-12T12:11:35;9.90;;;5.25;;
71566;SDS011;59403;47.456;19.120;2023-09-12T12:14:09;8.88;;;5.45;;
71566;SDS011;59403;47.456;19.120;2023-09-12T12:16:37;10.57;;;5.10;;
71566;SDS011;59403;47.456;19.120;2023-09-12T12:19:04;10.27;;;5.20;;
71566;SDS011;59403;47.456;19.120;2023-09-12T12:21:31;9.38;;;5.37;;
71566;SDS011;59403;47.456;19.120;2023-09-12T12:23:58;13.57;;;5.28;;
71566;SDS011;59403;47.456;19.120;2023-09-12T12:26:27;9.88;;;5.22;;
71566;SDS011;59403;47.456;19.120;2023-09-12T12:28:54;12.33;;;5.50;;
71566;SDS011;59403;47.456;19.120;2023-09-12T12:31:21;8.52;;;5.05;;
71566;SDS011;59403;47.456;19.120;2023-09-12T12:33:49;9.10;;;5.28;;
71566;SDS011;59403;47.456;19.120;2023-09-12T12:36:18;10.45;;;4.72;;
71566;SDS011;59403;47.456;19.120;2023-09-12T12:38:46;15.48;;;5.65;;
71566;SDS011;59403;47.456;19.120;2023-09-12T12:41:15;15.47;;;5.07;;
71566;SDS011;59403;47.456;19.120;2023-09-12T12:43:44;11.18;;;5.45;;
71566;SDS011;59403;47.456;19.120;2023-09-12T12:46:11;11.27;;;5.78;;
71566;SDS011;59403;47.456;19.120;2023-09-12T12:48:39;10.95;;;5.35;;
71566;SDS011;59403;47.456;19.120;2023-09-12T12:51:13;12.40;;;5.65;;
71566;SDS011;59403;47.456;19.120;2023-09-12T12:53:43;12.30;;;5.97;;
71566;SDS011;59403;47.456;19.120;2023-09-12T12:56:14;12.75;;;5.57;;
71566;SDS011;59403;47.456;19.120;2023-09-12T12:58:51;13.30;;;5.75;;
71566;SDS011;59403;47.456;19.120;2023-09-12T13:01:20;9.60;;;5.55;;
71566;SDS011;59403;47.456;19.120;2023-09-12T13:03:48;13.75;;;5.78;;
71566;SDS011;59403;47.456;19.120;2023-09-12T13:06:15;11.60;;;5.43;;
71566;SDS011;59403;47.456;19.120;2023-09-12T13:08:43;16.35;;;5.70;;
71566;SDS011;59403;47.456;19.120;2023-09-12T13:11:11;13.05;;;5.40;;
71566;SDS011;59403;47.456;19.120;2023-09-12T13:13:39;13.75;;;5.47;;
71566;SDS011;59403;47.456;19.120;2023-09-12T13:16:08;16.02;;;6.22;;
71566;SDS011;59403;47.456;19.120;2023-09-12T13:18:37;12.27;;;5.20;;
71566;SDS011;59403;47.456;19.120;2023-09-12T13:21:04;14.52;;;5.70;;
71566;SDS011;59403;47.456;19.120;2023-09-12T13:23:33;11.05;;;5.00;;
71566;SDS011;59403;47.456;19.120;2023-09-12T13:26:00;10.13;;;5.50;;
71566;SDS011;59403;47.456;19.120;2023-09-12T13:28:28;15.45;;;6.82;;
71566;SDS011;59403;47.456;19.120;2023-09-12T13:30:55;9.60;;;6.53;;
71566;SDS011;59403;47.456;19.120;2023-09-12T13:33:24;13.32;;;5.85;;
71566;SDS011;59403;47.456;19.120;2023-09-12T13:35:52;10.05;;;5.45;;
71566;SDS011;59403;47.456;19.120;2023-09-12T13:38:19;14.20;;;5.70;;
71566;SDS011;59403;47.456;19.120;2023-09-12T13:40:48;11.70;;;5.20;;
71566;SDS011;59403;47.456;19.120;2023-09-12T13:43:15;13.03;;;5.53;;
71566;SDS011;59403;47.456;19.120;2023-09-12T13:45:41;15.52;;;5.32;;
71566;SDS011;59403;47.456;19.120;2023-09-12T13:48:08;14.48;;;5.70;;
71566;SDS011;59403;47.456;19.120;2023-09-12T13:50:39;11.35;;;5.53;;
71566;SDS011;59403;47.456;19.120;2023-09-12T13:53:08;13.10;;;5.75;;
71566;SDS011;59403;47.456;19.120;2023-09-12T13:55:35;13.03;;;5.40;;
71566;SDS011;59403;47.456;19.120;2023-09-12T13:58:03;11.88;;;5.87;;
71566;SDS011;59403;47.456;19.120;2023-09-12T14:00:31;9.43;;;5.60;;
71566;SDS011;59403;47.456;19.120;2023-09-12T14:02:59;14.35;;;5.12;;
71566;SDS011;59403;47.456;19.120;2023-09-12T14:05:25;9.90;;;4.80;;
71566;SDS011;59403;47.456;19.120;2023-09-12T14:07:54;12.10;;;5.20;;
71566;SDS011;59403;47.456;19.120;2023-09-12T14:10:20;12.75;;;5.72;;
71566;SDS011;59403;47.456;19.120;2023-09-12T14:12:47;13.35;;;4.95;;
71566;SDS011;59403;47.456;19.120;2023-09-12T14:15:14;14.57;;;5.70;;
71566;SDS011;59403;47.456;19.120;2023-09-12T14:17:41;10.68;;;5.47;;
71566;SDS011;59403;47.456;19.120;2023-09-12T14:20:09;14.73;;;5.53;;
71566;SDS011;59403;47.456;19.120;2023-09-12T14:22:40;9.95;;;5.22;;
71566;SDS011;59403;47.456;19.120;2023-09-12T14:25:10;11.00;;;5.05;;
71566;SDS011;59403;47.456;19.120;2023-09-12T14:27:40;15.15;;;5.20;;
71566;SDS011;59403;47.456;19.120;2023-09-12T14:30:09;17.80;;;5.55;;
71566;SDS011;59403;47.456;19.120;2023-09-12T14:32:37;24.43;;;6.53;;